createdAt,value
2017-10-08T00:06:40.000Z,19.48
2017-10-08T00:16:40.000Z,19.52
2017-10-08T00:26:40.000Z,19.5
2017-10-08T00:36:40.000Z,19.5
2017-10-08T00:46:40.000Z,19.47
2017-10-08T00:56:40.000Z,19.5
2017-10-08T01:06:40.000Z,19.43
2017-10-08T01:16:40.000Z,19.38
2017-10-08T01:26:42.000Z,19.35
2017-10-08T01:36:41.000Z,19.32
2017-10-08T01:46:41.000Z,19.33
2017-10-08T01:56:41.000Z,19.33
2017-10-08T02:06:41.000Z,19.23
2017-10-08T02:16:41.000Z,19.27
2017-10-08T02:26:41.000Z,19.18
2017-10-08T02:36:41.000Z,19.23
2017-10-08T02:46:41.000Z,19.25
2017-10-08T02:56:41.000Z,19.33
2017-10-08T03:06:41.000Z,19.29
2017-10-08T03:16:41.000Z,19.24
2017-10-08T03:26:41.000Z,19.27
2017-10-08T03:36:41.000Z,19.3
2017-10-08T03:46:41.000Z,19.28
2017-10-08T03:56:41.000Z,19.18
2017-10-08T04:06:41.000Z,19.2
2017-10-08T04:16:41.000Z,19.17
2017-10-08T04:26:41.000Z,19.19
2017-10-08T04:36:41.000Z,19.22
2017-10-08T04:46:41.000Z,19.27
2017-10-08T04:56:41.000Z,19.28
2017-10-08T05:06:41.000Z,19.32
2017-10-08T05:16:41.000Z,19.28
2017-10-08T05:26:41.000Z,19.25
2017-10-08T05:36:41.000Z,19.19
2017-10-08T05:46:41.000Z,19.2
2017-10-08T05:56:41.000Z,19.26
2017-10-08T06:06:41.000Z,19.19
2017-10-08T06:16:41.000Z,19.21
2017-10-08T06:26:41.000Z,19.15
2017-10-08T06:36:41.000Z,19.23
2017-10-08T06:46:41.000Z,19.33
2017-10-08T06:56:41.000Z,19.33
2017-10-08T07:06:41.000Z,19.4
2017-10-08T18:26:44.000Z,20.9
2017-10-08T18:36:43.000Z,20.59
2017-10-08T18:46:43.000Z,20.48
2017-10-08T18:56:44.000Z,20.41
2017-10-08T19:06:43.000Z,20.38
2017-10-08T19:26:43.000Z,20.33
2017-10-08T19:36:43.000Z,20.33
2017-10-08T19:46:43.000Z,20.31
2017-10-08T19:56:46.000Z,20.29
2017-10-08T20:06:43.000Z,20.29
2017-10-08T20:16:43.000Z,20.33
2017-10-08T20:26:44.000Z,20.24
2017-10-08T20:36:43.000Z,20.22
2017-10-08T20:46:43.000Z,20.2
2017-10-08T20:56:45.000Z,20.16
2017-10-08T21:06:43.000Z,20.11
2017-10-08T21:16:43.000Z,20.06
2017-10-08T21:26:43.000Z,19.97
2017-10-08T21:36:43.000Z,19.94
2017-10-08T21:46:43.000Z,19.89
2017-10-08T21:56:43.000Z,19.82
2017-10-08T22:06:43.000Z,19.78
2017-10-08T22:16:43.000Z,19.73
2017-10-08T22:26:43.000Z,19.67
2017-10-08T22:36:43.000Z,19.62
2017-10-08T22:46:43.000Z,19.59
2017-10-08T22:56:43.000Z,19.54
2017-10-08T23:06:43.000Z,19.51
2017-10-08T23:16:43.000Z,19.46
2017-10-08T23:26:43.000Z,19.43
2017-10-08T23:36:43.000Z,19.4
2017-10-08T23:46:43.000Z,19.37
2017-10-08T23:56:43.000Z,19.32
